sensor_id;sensor_type;location;lat;lon;timestamp;P1;durP1;ratioP1;P2;durP2;ratioP2
14903;SDS011;7543;53.148;8.234;2024-02-15T00:01:48;9.47;;;6.70;;
14903;SDS011;7543;53.148;8.234;2024-02-15T00:04:17;9.70;;;5.97;;
14903;SDS011;7543;53.148;8.234;2024-02-15T00:06:45;11.50;;;7.07;;
14903;SDS011;7543;53.148;8.234;2024-02-15T00:09:14;11.60;;;6.97;;
14903;SDS011;7543;53.148;8.234;2024-02-15T00:11:43;8.73;;;6.93;;
14903;SDS011;7543;53.148;8.234;2024-02-15T00:14:12;12.20;;;7.33;;
14903;SDS011;7543;53.148;8.234;2024-02-15T00:16:40;9.60;;;6.70;;
14903;SDS011;7543;53.148;8.234;2024-02-15T00:19:08;10.57;;;7.43;;
14903;SDS011;7543;53.148;8.234;2024-02-15T00:21:37;10.03;;;7.30;;
14903;SDS011;7543;53.148;8.234;2024-02-15T00:24:05;12.27;;;6.93;;
14903;SDS011;7543;53.148;8.234;2024-02-15T00:26:34;9.33;;;7.27;;
14903;SDS011;7543;53.148;8.234;2024-02-15T00:29:04;11.07;;;7.20;;
14903;SDS011;7543;53.148;8.234;2024-02-15T00:31:32;12.50;;;7.43;;
14903;SDS011;7543;53.148;8.234;2024-02-15T00:34:02;11.37;;;8.03;;
14903;SDS011;7543;53.148;8.234;2024-02-15T00:36:30;11.80;;;7.87;;
14903;SDS011;7543;53.148;8.234;2024-02-15T00:38:59;10.63;;;7.63;;
14903;SDS011;7543;53.148;8.234;2024-02-15T00:41:27;10.10;;;7.80;;
14903;SDS011;7543;53.148;8.234;2024-02-15T00:43:56;11.33;;;7.40;;
14903;SDS011;7543;53.148;8.234;2024-02-15T00:46:25;11.90;;;7.40;;
14903;SDS011;7543;53.148;8.234;2024-02-15T00:48:55;10.23;;;7.33;;
14903;SDS011;7543;53.148;8.234;2024-02-15T00:51:24;11.77;;;7.40;;
14903;SDS011;7543;53.148;8.234;2024-02-15T00:53:53;9.33;;;6.67;;
14903;SDS011;7543;53.148;8.234;2024-02-15T00:56:21;10.33;;;7.07;;
14903;SDS011;7543;53.148;8.234;2024-02-15T00:58:51;11.07;;;7.53;;
14903;SDS011;7543;53.148;8.234;2024-02-15T01:01:19;9.80;;;7.20;;
14903;SDS011;7543;53.148;8.234;2024-02-15T01:03:49;11.97;;;8.37;;
14903;SDS011;7543;53.148;8.234;2024-02-15T01:06:17;9.53;;;7.00;;
14903;SDS011;7543;53.148;8.234;2024-02-15T01:08:46;13.67;;;7.80;;
14903;SDS011;7543;53.148;8.234;2024-02-15T01:11:14;11.17;;;7.07;;
14903;SDS011;7543;53.148;8.234;2024-02-15T01:13:42;10.10;;;7.03;;
14903;SDS011;7543;53.148;8.234;2024-02-15T01:16:11;9.90;;;7.53;;
14903;SDS011;7543;53.148;8.234;2024-02-15T01:18:40;9.80;;;7.00;;
14903;SDS011;7543;53.148;8.234;2024-02-15T01:21:09;11.63;;;7.40;;
14903;SDS011;7543;53.148;8.234;2024-02-15T01:23:38;10.70;;;7.57;;
14903;SDS011;7543;53.148;8.234;2024-02-15T01:26:06;11.03;;;7.50;;
14903;SDS011;7543;53.148;8.234;2024-02-15T01:28:35;12.73;;;7.90;;
14903;SDS011;7543;53.148;8.234;2024-02-15T01:31:03;12.23;;;8.03;;
14903;SDS011;7543;53.148;8.234;2024-02-15T01:33:33;11.93;;;7.77;;
14903;SDS011;7543;53.148;8.234;2024-02-15T01:36:01;13.73;;;8.47;;
14903;SDS011;7543;53.148;8.234;2024-02-15T01:38:31;12.97;;;8.80;;
14903;SDS011;7543;53.148;8.234;2024-02-15T01:41:00;11.43;;;7.97;;
14903;SDS011;7543;53.148;8.234;2024-02-15T01:43:28;13.47;;;8.40;;
14903;SDS011;7543;53.148;8.234;2024-02-15T01:45:56;12.83;;;8.27;;
14903;SDS011;7543;53.148;8.234;2024-02-15T01:48:28;13.67;;;8.47;;
14903;SDS011;7543;53.148;8.234;2024-02-15T01:50:57;14.13;;;8.57;;
14903;SDS011;7543;53.148;8.234;2024-02-15T01:53:26;15.03;;;8.50;;
14903;SDS011;7543;53.148;8.234;2024-02-15T01:55:56;14.20;;;8.40;;
14903;SDS011;7543;53.148;8.234;2024-02-15T01:58:25;12.17;;;8.47;;
14903;SDS011;7543;53.148;8.234;2024-02-15T02:00:56;15.00;;;8.10;;
14903;SDS011;7543;53.148;8.234;2024-02-15T02:03:24;13.17;;;9.17;;
14903;SDS011;7543;53.148;8.234;2024-02-15T02:05:52;13.00;;;8.37;;
14903;SDS011;7543;53.148;8.234;2024-02-15T02:08:21;14.23;;;7.87;;
14903;SDS011;7543;53.148;8.234;2024-02-15T02:10:49;11.30;;;7.83;;
14903;SDS011;7543;53.148;8.234;2024-02-15T02:13:19;13.37;;;8.40;;
14903;SDS011;7543;53.148;8.234;2024-02-15T02:15:48;12.97;;;7.90;;
14903;SDS011;7543;53.148;8.234;2024-02-15T02:18:16;13.63;;;8.63;;
14903;SDS011;7543;53.148;8.234;2024-02-15T02:20:44;13.70;;;7.77;;
14903;SDS011;7543;53.148;8.234;2024-02-15T02:23:13;13.27;;;8.80;;
14903;SDS011;7543;53.148;8.234;2024-02-15T02:25:45;13.47;;;8.70;;
14903;SDS011;7543;53.148;8.234;2024-02-15T02:28:16;18.93;;;8.47;;
14903;SDS011;7543;53.148;8.234;2024-02-15T02:30:45;14.53;;;8.67;;
14903;SDS011;7543;53.148;8.234;2024-02-15T02:33:13;13.80;;;8.90;;
14903;SDS011;7543;53.148;8.234;2024-02-15T02:35:45;14.70;;;8.77;;
14903;SDS011;7543;53.148;8.234;2024-02-15T02:38:14;14.80;;;8.23;;
14903;SDS011;7543;53.148;8.234;2024-02-15T02:40:44;14.10;;;8.77;;
14903;SDS011;7543;53.148;8.234;2024-02-15T02:43:12;14.77;;;8.80;;
14903;SDS011;7543;53.148;8.234;2024-02-15T02:45:42;15.30;;;8.37;;
14903;SDS011;7543;53.148;8.234;2024-02-15T02:48:12;14.37;;;8.73;;
14903;SDS011;7543;53.148;8.234;2024-02-15T02:50:40;16.37;;;8.40;;
14903;SDS011;7543;53.148;8.234;2024-02-15T02:53:09;14.40;;;8.30;;
14903;SDS011;7543;53.148;8.234;2024-02-15T02:55:37;12.40;;;7.80;;
14903;SDS011;7543;53.148;8.234;2024-02-15T02:58:08;14.10;;;7.83;;
14903;SDS011;7543;53.148;8.234;2024-02-15T03:00:37;13.53;;;8.20;;
14903;SDS011;7543;53.148;8.234;2024-02-15T03:03:06;12.70;;;7.67;;
14903;SDS011;7543;53.148;8.234;2024-02-15T03:05:35;14.67;;;8.30;;
14903;SDS011;7543;53.148;8.234;2024-02-15T03:08:08;14.93;;;7.60;;
14903;SDS011;7543;53.148;8.234;2024-02-15T03:10:36;14.47;;;8.40;;
14903;SDS011;7543;53.148;8.234;2024-02-15T03:13:05;11.30;;;7.53;;
14903;SDS011;7543;53.148;8.234;2024-02-15T03:15:36;13.90;;;7.70;;
14903;SDS011;7543;53.148;8.234;2024-02-15T03:18:04;11.60;;;7.47;;
14903;SDS011;7543;53.148;8.234;2024-02-15T03:20:33;13.27;;;7.97;;
14903;SDS011;7543;53.148;8.234;2024-02-15T03:23:02;10.57;;;7.30;;
14903;SDS011;7543;53.148;8.234;2024-02-15T03:25:31;12.13;;;7.73;;
14903;SDS011;7543;53.148;8.234;2024-02-15T03:28:01;13.60;;;8.37;;
14903;SDS011;7543;53.148;8.234;2024-02-15T03:30:31;13.17;;;8.20;;
14903;SDS011;7543;53.148;8.234;2024-02-15T03:33:01;12.87;;;7.83;;
14903;SDS011;7543;53.148;8.234;2024-02-15T03:35:32;10.13;;;6.10;;
14903;SDS011;7543;53.148;8.234;2024-02-15T03:38:00;12.77;;;6.97;;
14903;SDS011;7543;53.148;8.234;2024-02-15T03:40:28;10.77;;;6.63;;
14903;SDS011;7543;53.148;8.234;2024-02-15T03:42:57;12.07;;;6.43;;
14903;SDS011;7543;53.148;8.234;2024-02-15T03:45:25;12.93;;;6.57;;
14903;SDS011;7543;53.148;8.234;2024-02-15T03:47:53;12.70;;;5.90;;
14903;SDS011;7543;53.148;8.234;2024-02-15T03:50:24;9.07;;;6.00;;
14903;SDS011;7543;53.148;8.234;2024-02-15T03:52:52;10.10;;;6.33;;
14903;SDS011;7543;53.148;8.234;2024-02-15T03:55:20;11.90;;;5.57;;
14903;SDS011;7543;53.148;8.234;2024-02-15T03:57:49;10.33;;;5.53;;
14903;SDS011;7543;53.148;8.234;2024-02-15T04:00:17;13.40;;;6.27;;
14903;SDS011;7543;53.148;8.234;2024-02-15T04:02:47;10.97;;;6.37;;
14903;SDS011;7543;53.148;8.234;2024-02-15T04:05:16;12.27;;;6.07;;
14903;SDS011;7543;53.148;8.234;2024-02-15T04:07:46;10.73;;;5.53;;
14903;SDS011;7543;53.148;8.234;2024-02-15T04:10:14;9.00;;;5.87;;
14903;SDS011;7543;53.148;8.234;2024-02-15T04:12:44;9.23;;;5.63;;
14903;SDS011;7543;53.148;8.234;2024-02-15T04:15:13;10.50;;;5.53;;
14903;SDS011;7543;53.148;8.234;2024-02-15T04:17:43;9.00;;;5.70;;
14903;SDS011;7543;53.148;8.234;2024-02-15T04:20:12;10.17;;;5.07;;
14903;SDS011;7543;53.148;8.234;2024-02-15T04:22:42;9.73;;;5.67;;
14903;SDS011;7543;53.148;8.234;2024-02-15T04:25:12;9.37;;;5.53;;
14903;SDS011;7543;53.148;8.234;2024-02-15T04:27:44;6.97;;;4.73;;
14903;SDS011;7543;53.148;8.234;2024-02-15T04:30:13;8.20;;;5.30;;
14903;SDS011;7543;53.148;8.234;2024-02-15T04:32:42;8.40;;;5.47;;
14903;SDS011;7543;53.148;8.234;2024-02-15T04:35:10;9.73;;;5.37;;
14903;SDS011;7543;53.148;8.234;2024-02-15T04:37:38;10.73;;;5.00;;
14903;SDS011;7543;53.148;8.234;2024-02-15T04:40:07;9.27;;;5.20;;
14903;SDS011;7543;53.148;8.234;2024-02-15T04:42:38;10.73;;;5.87;;
14903;SDS011;7543;53.148;8.234;2024-02-15T04:45:10;9.73;;;6.50;;
14903;SDS011;7543;53.148;8.234;2024-02-15T04:47:40;10.23;;;6.00;;
14903;SDS011;7543;53.148;8.234;2024-02-15T04:50:09;8.20;;;5.47;;
14903;SDS011;7543;53.148;8.234;2024-02-15T04:52:37;10.47;;;5.53;;
14903;SDS011;7543;53.148;8.234;2024-02-15T04:55:06;8.97;;;5.37;;
14903;SDS011;7543;53.148;8.234;2024-02-15T04:57:35;9.00;;;6.17;;
14903;SDS011;7543;53.148;8.234;2024-02-15T05:00:06;13.90;;;6.33;;
14903;SDS011;7543;53.148;8.234;2024-02-15T05:02:37;11.67;;;6.00;;
14903;SDS011;7543;53.148;8.234;2024-02-15T05:05:07;11.13;;;5.87;;
14903;SDS011;7543;53.148;8.234;2024-02-15T05:07:36;13.83;;;6.40;;
14903;SDS011;7543;53.148;8.234;2024-02-15T05:10:06;10.83;;;6.27;;
14903;SDS011;7543;53.148;8.234;2024-02-15T05:12:36;10.13;;;5.90;;
14903;SDS011;7543;53.148;8.234;2024-02-15T05:15:07;10.40;;;6.53;;
14903;SDS011;7543;53.148;8.234;2024-02-15T05:17:37;10.97;;;6.10;;
14903;SDS011;7543;53.148;8.234;2024-02-15T05:20:08;9.13;;;5.73;;
14903;SDS011;7543;53.148;8.234;2024-02-15T05:22:38;10.13;;;6.03;;
14903;SDS011;7543;53.148;8.234;2024-02-15T05:25:10;14.33;;;6.50;;
14903;SDS011;7543;53.148;8.234;2024-02-15T05:27:39;13.70;;;6.83;;
14903;SDS011;7543;53.148;8.234;2024-02-15T05:30:11;9.30;;;6.43;;
14903;SDS011;7543;53.148;8.234;2024-02-15T05:32:41;11.13;;;6.50;;
14903;SDS011;7543;53.148;8.234;2024-02-15T05:35:10;10.40;;;6.87;;
14903;SDS011;7543;53.148;8.234;2024-02-15T05:37:39;11.90;;;6.50;;
14903;SDS011;7543;53.148;8.234;2024-02-15T05:40:07;10.47;;;6.80;;
14903;SDS011;7543;53.148;8.234;2024-02-15T05:42:41;11.97;;;7.20;;
14903;SDS011;7543;53.148;8.234;2024-02-15T05:45:29;9.80;;;6.47;;
14903;SDS011;7543;53.148;8.234;2024-02-15T05:48:03;11.20;;;6.70;;
14903;SDS011;7543;53.148;8.234;2024-02-15T05:50:34;11.73;;;7.00;;
14903;SDS011;7543;53.148;8.234;2024-02-15T05:53:03;12.90;;;6.97;;
14903;SDS011;7543;53.148;8.234;2024-02-15T05:55:31;13.43;;;7.27;;
14903;SDS011;7543;53.148;8.234;2024-02-15T05:58:01;11.33;;;7.37;;
14903;SDS011;7543;53.148;8.234;2024-02-15T06:00:32;13.17;;;7.83;;
14903;SDS011;7543;53.148;8.234;2024-02-15T06:03:01;12.50;;;8.00;;
14903;SDS011;7543;53.148;8.234;2024-02-15T06:05:30;13.10;;;7.47;;
14903;SDS011;7543;53.148;8.234;2024-02-15T06:07:59;12.20;;;8.10;;
14903;SDS011;7543;53.148;8.234;2024-02-15T06:10:27;12.00;;;7.83;;
14903;SDS011;7543;53.148;8.234;2024-02-15T06:12:56;17.67;;;8.50;;
14903;SDS011;7543;53.148;8.234;2024-02-15T06:15:24;14.43;;;8.53;;
14903;SDS011;7543;53.148;8.234;2024-02-15T06:17:54;11.53;;;8.20;;
14903;SDS011;7543;53.148;8.234;2024-02-15T06:20:24;13.70;;;8.83;;
14903;SDS011;7543;53.148;8.234;2024-02-15T06:22:55;14.80;;;8.57;;
14903;SDS011;7543;53.148;8.234;2024-02-15T06:25:23;14.87;;;9.20;;
14903;SDS011;7543;53.148;8.234;2024-02-15T06:27:52;16.43;;;9.83;;
14903;SDS011;7543;53.148;8.234;2024-02-15T06:30:25;15.33;;;10.03;;
14903;SDS011;7543;53.148;8.234;2024-02-15T06:33:12;17.17;;;10.47;;
14903;SDS011;7543;53.148;8.234;2024-02-15T06:35:57;16.97;;;10.43;;
14903;SDS011;7543;53.148;8.234;2024-02-15T06:38:43;16.50;;;10.23;;
14903;SDS011;7543;53.148;8.234;2024-02-15T06:41:28;14.90;;;9.63;;
14903;SDS011;7543;53.148;8.234;2024-02-15T06:43:57;18.00;;;9.57;;
14903;SDS011;7543;53.148;8.234;2024-02-15T06:46:25;16.10;;;9.53;;
14903;SDS011;7543;53.148;8.234;2024-02-15T06:48:55;14.63;;;9.13;;
14903;SDS011;7543;53.148;8.234;2024-02-15T06:51:24;16.87;;;9.47;;
14903;SDS011;7543;53.148;8.234;2024-02-15T06:53:53;15.20;;;9.80;;
14903;SDS011;7543;53.148;8.234;2024-02-15T06:56:22;14.93;;;9.53;;
14903;SDS011;7543;53.148;8.234;2024-02-15T06:58:51;17.93;;;10.00;;
14903;SDS011;7543;53.148;8.234;2024-02-15T07:01:20;14.50;;;9.30;;
14903;SDS011;7543;53.148;8.234;2024-02-15T07:03:48;15.30;;;9.13;;
14903;SDS011;7543;53.148;8.234;2024-02-15T07:06:19;14.13;;;9.60;;
14903;SDS011;7543;53.148;8.234;2024-02-15T07:08:48;13.57;;;8.80;;
14903;SDS011;7543;53.148;8.234;2024-02-15T07:11:17;15.73;;;9.13;;
14903;SDS011;7543;53.148;8.234;2024-02-15T07:13:46;13.70;;;9.20;;
14903;SDS011;7543;53.148;8.234;2024-02-15T07:16:15;14.73;;;9.33;;
14903;SDS011;7543;53.148;8.234;2024-02-15T07:18:43;12.57;;;9.00;;
14903;SDS011;7543;53.148;8.234;2024-02-15T07:21:12;19.23;;;8.90;;
14903;SDS011;7543;53.148;8.234;2024-02-15T07:23:45;14.23;;;9.10;;
14903;SDS011;7543;53.148;8.234;2024-02-15T07:26:13;14.07;;;9.10;;
14903;SDS011;7543;53.148;8.234;2024-02-15T07:28:42;14.10;;;8.97;;
14903;SDS011;7543;53.148;8.234;2024-02-15T07:31:11;14.10;;;9.23;;
14903;SDS011;7543;53.148;8.234;2024-02-15T07:33:39;17.30;;;9.20;;
14903;SDS011;7543;53.148;8.234;2024-02-15T07:36:09;12.83;;;8.23;;
14903;SDS011;7543;53.148;8.234;2024-02-15T07:38:38;13.27;;;8.20;;
14903;SDS011;7543;53.148;8.234;2024-02-15T07:41:08;16.73;;;9.13;;
14903;SDS011;7543;53.148;8.234;2024-02-15T07:43:36;14.37;;;9.40;;
14903;SDS011;7543;53.148;8.234;2024-02-15T07:46:06;13.10;;;8.60;;
14903;SDS011;7543;53.148;8.234;2024-02-15T07:48:34;16.23;;;9.03;;
14903;SDS011;7543;53.148;8.234;2024-02-15T07:51:03;15.87;;;9.17;;
14903;SDS011;7543;53.148;8.234;2024-02-15T07:53:33;15.27;;;8.90;;
14903;SDS011;7543;53.148;8.234;2024-02-15T07:56:01;12.67;;;8.50;;
14903;SDS011;7543;53.148;8.234;2024-02-15T07:58:31;15.10;;;8.50;;
14903;SDS011;7543;53.148;8.234;2024-02-15T08:00:59;15.97;;;8.67;;
14903;SDS011;7543;53.148;8.234;2024-02-15T08:03:28;11.07;;;7.77;;
14903;SDS011;7543;53.148;8.234;2024-02-15T08:05:57;12.97;;;8.23;;
14903;SDS011;7543;53.148;8.234;2024-02-15T08:08:25;14.23;;;8.53;;
14903;SDS011;7543;53.148;8.234;2024-02-15T08:10:54;14.87;;;8.60;;
14903;SDS011;7543;53.148;8.234;2024-02-15T08:13:22;15.10;;;8.10;;
14903;SDS011;7543;53.148;8.234;2024-02-15T08:15:57;15.40;;;8.63;;
14903;SDS011;7543;53.148;8.234;2024-02-15T08:18:25;14.30;;;8.30;;
14903;SDS011;7543;53.148;8.234;2024-02-15T08:20:54;14.27;;;8.70;;
14903;SDS011;7543;53.148;8.234;2024-02-15T08:23:23;13.33;;;8.00;;
14903;SDS011;7543;53.148;8.234;2024-02-15T08:25:53;10.57;;;7.57;;
14903;SDS011;7543;53.148;8.234;2024-02-15T08:28:22;12.03;;;7.70;;
14903;SDS011;7543;53.148;8.234;2024-02-15T08:30:51;11.50;;;7.73;;
14903;SDS011;7543;53.148;8.234;2024-02-15T08:33:21;12.93;;;8.10;;
14903;SDS011;7543;53.148;8.234;2024-02-15T08:35:50;11.57;;;8.00;;
14903;SDS011;7543;53.148;8.234;2024-02-15T08:38:20;12.93;;;7.60;;
14903;SDS011;7543;53.148;8.234;2024-02-15T08:40:49;13.07;;;7.43;;
14903;SDS011;7543;53.148;8.234;2024-02-15T08:43:17;11.30;;;7.37;;
14903;SDS011;7543;53.148;8.234;2024-02-15T08:45:46;17.13;;;7.53;;
14903;SDS011;7543;53.148;8.234;2024-02-15T08:48:15;11.80;;;7.77;;
14903;SDS011;7543;53.148;8.234;2024-02-15T08:50:44;12.87;;;7.50;;
14903;SDS011;7543;53.148;8.234;2024-02-15T08:53:13;11.53;;;7.60;;
14903;SDS011;7543;53.148;8.234;2024-02-15T08:55:42;11.33;;;7.37;;
14903;SDS011;7543;53.148;8.234;2024-02-15T08:58:11;13.70;;;7.60;;
14903;SDS011;7543;53.148;8.234;2024-02-15T09:00:39;14.20;;;7.90;;
14903;SDS011;7543;53.148;8.234;2024-02-15T09:03:11;14.50;;;7.27;;
14903;SDS011;7543;53.148;8.234;2024-02-15T09:05:39;11.00;;;7.03;;
14903;SDS011;7543;53.148;8.234;2024-02-15T09:08:09;12.63;;;7.20;;
14903;SDS011;7543;53.148;8.234;2024-02-15T09:10:38;13.43;;;7.37;;
14903;SDS011;7543;53.148;8.234;2024-02-15T09:13:06;13.33;;;7.50;;
14903;SDS011;7543;53.148;8.234;2024-02-15T09:15:53;13.03;;;7.90;;
14903;SDS011;7543;53.148;8.234;2024-02-15T09:18:40;13.23;;;7.57;;
14903;SDS011;7543;53.148;8.234;2024-02-15T09:21:30;16.87;;;7.90;;
14903;SDS011;7543;53.148;8.234;2024-02-15T09:24:20;16.40;;;8.47;;
14903;SDS011;7543;53.148;8.234;2024-02-15T09:26:48;14.40;;;7.90;;
14903;SDS011;7543;53.148;8.234;2024-02-15T09:29:17;14.37;;;8.90;;
14903;SDS011;7543;53.148;8.234;2024-02-15T09:31:46;15.30;;;8.77;;
14903;SDS011;7543;53.148;8.234;2024-02-15T09:34:15;14.13;;;8.50;;
14903;SDS011;7543;53.148;8.234;2024-02-15T09:36:43;14.47;;;8.53;;
14903;SDS011;7543;53.148;8.234;2024-02-15T09:39:12;15.10;;;8.90;;
14903;SDS011;7543;53.148;8.234;2024-02-15T09:41:42;14.13;;;8.67;;
14903;SDS011;7543;53.148;8.234;2024-02-15T09:44:10;16.07;;;9.67;;
14903;SDS011;7543;53.148;8.234;2024-02-15T09:46:42;15.90;;;9.17;;
14903;SDS011;7543;53.148;8.234;2024-02-15T09:49:11;16.43;;;9.83;;
14903;SDS011;7543;53.148;8.234;2024-02-15T09:51:40;16.83;;;10.07;;
14903;SDS011;7543;53.148;8.234;2024-02-15T09:54:09;15.20;;;10.00;;
14903;SDS011;7543;53.148;8.234;2024-02-15T09:56:42;19.83;;;10.60;;
14903;SDS011;7543;53.148;8.234;2024-02-15T09:59:12;16.70;;;10.90;;
14903;SDS011;7543;53.148;8.234;2024-02-15T10:01:40;18.40;;;10.50;;
14903;SDS011;7543;53.148;8.234;2024-02-15T10:04:09;19.13;;;11.23;;
14903;SDS011;7543;53.148;8.234;2024-02-15T10:06:42;17.23;;;10.73;;
14903;SDS011;7543;53.148;8.234;2024-02-15T10:09:23;18.30;;;10.67;;
14903;SDS011;7543;53.148;8.234;2024-02-15T10:11:57;17.20;;;10.97;;
14903;SDS011;7543;53.148;8.234;2024-02-15T10:14:27;17.40;;;10.50;;
14903;SDS011;7543;53.148;8.234;2024-02-15T10:16:56;19.27;;;11.03;;
14903;SDS011;7543;53.148;8.234;2024-02-15T10:19:24;15.97;;;10.67;;
14903;SDS011;7543;53.148;8.234;2024-02-15T10:21:54;14.07;;;10.10;;
14903;SDS011;7543;53.148;8.234;2024-02-15T10:24:23;20.87;;;10.90;;
14903;SDS011;7543;53.148;8.234;2024-02-15T10:26:53;15.93;;;10.73;;
14903;SDS011;7543;53.148;8.234;2024-02-15T10:29:30;15.33;;;10.50;;
14903;SDS011;7543;53.148;8.234;2024-02-15T10:31:59;14.83;;;9.73;;
14903;SDS011;7543;53.148;8.234;2024-02-15T10:34:28;15.40;;;10.07;;
14903;SDS011;7543;53.148;8.234;2024-02-15T10:37:10;18.10;;;10.33;;
14903;SDS011;7543;53.148;8.234;2024-02-15T10:39:39;16.77;;;9.93;;
14903;SDS011;7543;53.148;8.234;2024-02-15T10:42:09;14.30;;;9.57;;
14903;SDS011;7543;53.148;8.234;2024-02-15T10:44:38;15.87;;;10.20;;
14903;SDS011;7543;53.148;8.234;2024-02-15T10:47:07;16.97;;;10.27;;
14903;SDS011;7543;53.148;8.234;2024-02-15T10:49:36;16.97;;;10.07;;
14903;SDS011;7543;53.148;8.234;2024-02-15T10:52:04;15.23;;;9.40;;
14903;SDS011;7543;53.148;8.234;2024-02-15T10:57:21;15.40;;;9.73;;
14903;SDS011;7543;53.148;8.234;2024-02-15T10:59:54;14.70;;;9.37;;
14903;SDS011;7543;53.148;8.234;2024-02-15T11:02:28;14.97;;;10.10;;
14903;SDS011;7543;53.148;8.234;2024-02-15T11:04:59;14.13;;;8.23;;
14903;SDS011;7543;53.148;8.234;2024-02-15T11:07:31;11.40;;;8.70;;
14903;SDS011;7543;53.148;8.234;2024-02-15T11:10:00;12.57;;;8.40;;
14903;SDS011;7543;53.148;8.234;2024-02-15T11:12:30;11.60;;;7.80;;
14903;SDS011;7543;53.148;8.234;2024-02-15T11:14:58;15.90;;;8.63;;
14903;SDS011;7543;53.148;8.234;2024-02-15T11:17:46;16.07;;;8.20;;
14903;SDS011;7543;53.148;8.234;2024-02-15T11:23:25;10.67;;;7.37;;
14903;SDS011;7543;53.148;8.234;2024-02-15T11:25:54;12.03;;;6.50;;
14903;SDS011;7543;53.148;8.234;2024-02-15T11:28:40;11.37;;;7.53;;
14903;SDS011;7543;53.148;8.234;2024-02-15T11:31:09;9.57;;;6.87;;
14903;SDS011;7543;53.148;8.234;2024-02-15T11:33:39;10.07;;;6.30;;
14903;SDS011;7543;53.148;8.234;2024-02-15T11:36:07;9.50;;;6.40;;
14903;SDS011;7543;53.148;8.234;2024-02-15T11:38:37;9.23;;;6.43;;
14903;SDS011;7543;53.148;8.234;2024-02-15T11:41:08;8.73;;;5.80;;
14903;SDS011;7543;53.148;8.234;2024-02-15T11:43:48;10.30;;;6.37;;
14903;SDS011;7543;53.148;8.234;2024-02-15T11:46:21;6.87;;;5.57;;
14903;SDS011;7543;53.148;8.234;2024-02-15T11:48:52;7.30;;;5.17;;
14903;SDS011;7543;53.148;8.234;2024-02-15T11:51:24;11.90;;;5.83;;
14903;SDS011;7543;53.148;8.234;2024-02-15T11:54:03;7.10;;;5.40;;
14903;SDS011;7543;53.148;8.234;2024-02-15T11:59:39;7.83;;;4.93;;
14903;SDS011;7543;53.148;8.234;2024-02-15T12:02:20;6.47;;;4.97;;
14903;SDS011;7543;53.148;8.234;2024-02-15T12:05:06;7.53;;;5.33;;
14903;SDS011;7543;53.148;8.234;2024-02-15T12:07:52;10.47;;;5.20;;
14903;SDS011;7543;53.148;8.234;2024-02-15T12:10:38;7.43;;;5.10;;
14903;SDS011;7543;53.148;8.234;2024-02-15T12:13:24;7.07;;;4.47;;
14903;SDS011;7543;53.148;8.234;2024-02-15T12:16:15;8.50;;;4.83;;
14903;SDS011;7543;53.148;8.234;2024-02-15T12:19:00;6.97;;;4.80;;
14903;SDS011;7543;53.148;8.234;2024-02-15T12:21:30;6.07;;;4.77;;
14903;SDS011;7543;53.148;8.234;2024-02-15T12:23:58;7.63;;;4.73;;
14903;SDS011;7543;53.148;8.234;2024-02-15T12:26:26;6.00;;;4.57;;
14903;SDS011;7543;53.148;8.234;2024-02-15T12:28:57;7.07;;;4.80;;
14903;SDS011;7543;53.148;8.234;2024-02-15T12:31:26;6.70;;;4.67;;
14903;SDS011;7543;53.148;8.234;2024-02-15T12:33:59;5.33;;;4.57;;
14903;SDS011;7543;53.148;8.234;2024-02-15T12:36:29;5.57;;;4.03;;
14903;SDS011;7543;53.148;8.234;2024-02-15T12:38:59;4.80;;;4.13;;
14903;SDS011;7543;53.148;8.234;2024-02-15T12:41:28;6.13;;;4.47;;
14903;SDS011;7543;53.148;8.234;2024-02-15T12:43:57;5.27;;;4.07;;
14903;SDS011;7543;53.148;8.234;2024-02-15T12:46:27;8.23;;;4.23;;
14903;SDS011;7543;53.148;8.234;2024-02-15T12:49:09;4.60;;;3.80;;
14903;SDS011;7543;53.148;8.234;2024-02-15T12:51:41;5.60;;;3.63;;
14903;SDS011;7543;53.148;8.234;2024-02-15T12:54:21;5.37;;;3.50;;
14903;SDS011;7543;53.148;8.234;2024-02-15T12:56:50;4.03;;;3.57;;
14903;SDS011;7543;53.148;8.234;2024-02-15T12:59:19;4.80;;;3.40;;
14903;SDS011;7543;53.148;8.234;2024-02-15T13:01:49;5.13;;;3.73;;
14903;SDS011;7543;53.148;8.234;2024-02-15T13:04:23;7.23;;;3.43;;
14903;SDS011;7543;53.148;8.234;2024-02-15T13:06:52;4.50;;;3.53;;
14903;SDS011;7543;53.148;8.234;2024-02-15T13:09:20;4.57;;;3.67;;
14903;SDS011;7543;53.148;8.234;2024-02-15T13:11:49;4.97;;;3.50;;
14903;SDS011;7543;53.148;8.234;2024-02-15T13:14:20;3.53;;;2.93;;
14903;SDS011;7543;53.148;8.234;2024-02-15T13:16:50;4.63;;;3.17;;
14903;SDS011;7543;53.148;8.234;2024-02-15T13:19:18;3.77;;;3.10;;
14903;SDS011;7543;53.148;8.234;2024-02-15T13:21:47;4.83;;;2.90;;
14903;SDS011;7543;53.148;8.234;2024-02-15T13:24:19;3.90;;;2.93;;
14903;SDS011;7543;53.148;8.234;2024-02-15T13:26:52;3.60;;;3.13;;
14903;SDS011;7543;53.148;8.234;2024-02-15T13:29:20;4.97;;;3.20;;
14903;SDS011;7543;53.148;8.234;2024-02-15T13:31:51;4.73;;;3.00;;
14903;SDS011;7543;53.148;8.234;2024-02-15T13:34:21;3.13;;;2.60;;
14903;SDS011;7543;53.148;8.234;2024-02-15T13:36:49;2.83;;;2.43;;
14903;SDS011;7543;53.148;8.234;2024-02-15T13:39:18;3.23;;;2.60;;
14903;SDS011;7543;53.148;8.234;2024-02-15T13:41:48;2.70;;;2.20;;
14903;SDS011;7543;53.148;8.234;2024-02-15T13:44:16;3.67;;;2.00;;
14903;SDS011;7543;53.148;8.234;2024-02-15T13:46:46;3.50;;;2.33;;
14903;SDS011;7543;53.148;8.234;2024-02-15T13:49:18;3.53;;;2.30;;
14903;SDS011;7543;53.148;8.234;2024-02-15T13:51:46;2.87;;;2.30;;
14903;SDS011;7543;53.148;8.234;2024-02-15T13:54:14;4.20;;;2.63;;
14903;SDS011;7543;53.148;8.234;2024-02-15T13:56:43;3.50;;;2.50;;
14903;SDS011;7543;53.148;8.234;2024-02-15T13:59:11;3.13;;;2.10;;
14903;SDS011;7543;53.148;8.234;2024-02-15T14:01:40;4.53;;;2.40;;
14903;SDS011;7543;53.148;8.234;2024-02-15T14:04:12;4.00;;;2.67;;
14903;SDS011;7543;53.148;8.234;2024-02-15T14:06:42;5.10;;;2.20;;
14903;SDS011;7543;53.148;8.234;2024-02-15T14:09:11;2.50;;;2.23;;
14903;SDS011;7543;53.148;8.234;2024-02-15T14:11:39;2.90;;;2.23;;
14903;SDS011;7543;53.148;8.234;2024-02-15T14:14:07;4.10;;;2.40;;
14903;SDS011;7543;53.148;8.234;2024-02-15T14:16:35;3.00;;;2.43;;
14903;SDS011;7543;53.148;8.234;2024-02-15T14:19:04;4.63;;;2.73;;
14903;SDS011;7543;53.148;8.234;2024-02-15T14:21:33;3.53;;;2.80;;
14903;SDS011;7543;53.148;8.234;2024-02-15T14:24:07;3.23;;;2.50;;
14903;SDS011;7543;53.148;8.234;2024-02-15T14:26:36;3.60;;;2.73;;
14903;SDS011;7543;53.148;8.234;2024-02-15T14:29:04;4.17;;;2.60;;
14903;SDS011;7543;53.148;8.234;2024-02-15T14:31:32;4.30;;;2.60;;
14903;SDS011;7543;53.148;8.234;2024-02-15T14:34:18;5.13;;;2.57;;
14903;SDS011;7543;53.148;8.234;2024-02-15T14:36:47;3.83;;;2.90;;
14903;SDS011;7543;53.148;8.234;2024-02-15T14:39:16;4.53;;;2.27;;
14903;SDS011;7543;53.148;8.234;2024-02-15T14:41:46;3.57;;;2.67;;
14903;SDS011;7543;53.148;8.234;2024-02-15T14:44:14;3.33;;;2.40;;
14903;SDS011;7543;53.148;8.234;2024-02-15T14:46:42;3.17;;;2.43;;
14903;SDS011;7543;53.148;8.234;2024-02-15T14:49:11;4.87;;;2.50;;
14903;SDS011;7543;53.148;8.234;2024-02-15T14:51:39;4.83;;;2.87;;
14903;SDS011;7543;53.148;8.234;2024-02-15T14:54:08;3.07;;;2.40;;
14903;SDS011;7543;53.148;8.234;2024-02-15T14:56:38;2.50;;;2.30;;
14903;SDS011;7543;53.148;8.234;2024-02-15T14:59:06;3.27;;;2.67;;
14903;SDS011;7543;53.148;8.234;2024-02-15T15:01:35;2.97;;;2.67;;
14903;SDS011;7543;53.148;8.234;2024-02-15T15:04:04;4.60;;;2.53;;
14903;SDS011;7543;53.148;8.234;2024-02-15T15:06:33;3.17;;;2.73;;
14903;SDS011;7543;53.148;8.234;2024-02-15T15:09:19;7.87;;;2.90;;
14903;SDS011;7543;53.148;8.234;2024-02-15T15:12:06;3.97;;;3.00;;
14903;SDS011;7543;53.148;8.234;2024-02-15T15:14:51;3.70;;;2.77;;
14903;SDS011;7543;53.148;8.234;2024-02-15T15:17:22;4.60;;;3.17;;
14903;SDS011;7543;53.148;8.234;2024-02-15T15:19:52;5.07;;;3.10;;